Time;durP1;ratioP1;P1;durP2;ratioP2;P2;SDS_P1;SDS_P2;PMS_P1;PMS_P2;Temp;Humidity;BMP_temperature;BMP_pressure;BME280_temperature;BME280_humidity;BME280_pressure;Samples;Min_cycle;Max_cycle;Signal;HPM_P1;HPM_P2
2023/10/20 00:01:54;;;;;;;27.85;17.23;;;;;;;;;;7391445;19;20015;-77
2023/10/20 00:04:19;;;;;;;23.33;16.50;;;;;;;;;;7389247;19;20023;-77
2023/10/20 00:06:44;;;;;;;26.85;17.42;;;;;;;;;;7393215;19;20013;-77
2023/10/20 00:09:14;;;;;;;26.58;17.38;;;;;;;;;;7414587;19;20166;-76
2023/10/20 00:11:43;;;;;;;23.67;16.52;;;;;;;;;;7388954;19;20018;-77
2023/10/20 00:14:08;;;;;;;23.60;16.17;;;;;;;;;;7385984;19;20070;-77
2023/10/20 00:16:34;;;;;;;26.08;16.77;;;;;;;;;;7377770;19;20045;-77
2023/10/20 00:19:02;;;;;;;28.45;17.58;;;;;;;;;;7374873;19;20006;-76
2023/10/20 00:21:29;;;;;;;24.23;16.70;;;;;;;;;;7404268;19;20738;-76
2023/10/20 00:23:54;;;;;;;26.27;18.27;;;;;;;;;;7382904;19;20047;-77
2023/10/20 00:26:20;;;;;;;26.75;18.73;;;;;;;;;;7383713;19;20031;-77
2023/10/20 00:28:45;;;;;;;25.45;17.50;;;;;;;;;;7382674;19;20030;-76
2023/10/20 00:31:11;;;;;;;27.55;18.20;;;;;;;;;;7383728;19;20027;-77
2023/10/20 00:33:37;;;;;;;26.75;17.88;;;;;;;;;;7389930;19;20019;-77
2023/10/20 00:36:04;;;;;;;26.38;18.63;;;;;;;;;;7404912;19;20017;-76
2023/10/20 00:38:29;;;;;;;29.23;18.10;;;;;;;;;;7382567;19;20376;-77
2023/10/20 00:40:54;;;;;;;25.27;17.27;;;;;;;;;;7387695;19;20027;-77
2023/10/20 00:43:20;;;;;;;31.88;18.75;;;;;;;;;;7385076;19;20002;-76
2023/10/20 00:45:46;;;;;;;24.88;17.13;;;;;;;;;;7385371;19;20007;-77
2023/10/20 00:48:12;;;;;;;26.80;17.42;;;;;;;;;;7405423;19;20074;-77
2023/10/20 00:50:38;;;;;;;25.27;16.70;;;;;;;;;;7380054;19;20006;-77
2023/10/20 00:53:05;;;;;;;29.05;18.20;;;;;;;;;;7377206;19;20013;-77
2023/10/20 00:55:31;;;;;;;29.30;19.00;;;;;;;;;;7384615;19;20016;-77
2023/10/20 00:57:57;;;;;;;33.00;19.02;;;;;;;;;;7377136;19;20004;-76
2023/10/20 01:00:22;;;;;;;34.20;19.45;;;;;;;;;;7399560;19;20003;-77
2023/10/20 01:02:48;;;;;;;28.98;18.60;;;;;;;;;;7378199;19;20023;-77
2023/10/20 01:05:15;;;;;;;29.58;18.17;;;;;;;;;;7373951;19;20520;-77
2023/10/20 01:07:40;;;;;;;32.22;19.05;;;;;;;;;;7372927;19;20017;-77
2023/10/20 01:10:06;;;;;;;32.20;18.75;;;;;;;;;;7374214;19;20010;-77
2023/10/20 01:12:33;;;;;;;28.15;18.63;;;;;;;;;;7396870;19;20310;-77
2023/10/20 01:14:59;;;;;;;30.58;18.58;;;;;;;;;;7375753;19;20023;-77
2023/10/20 01:17:26;;;;;;;31.40;18.13;;;;;;;;;;7376920;19;20066;-77
2023/10/20 01:19:52;;;;;;;30.48;18.48;;;;;;;;;;7371792;19;20002;-76
2023/10/20 01:22:17;;;;;;;26.38;18.05;;;;;;;;;;7371251;19;20006;-77
2023/10/20 01:24:43;;;;;;;32.95;19.42;;;;;;;;;;7372891;19;20019;-77
2023/10/20 01:27:08;;;;;;;30.58;18.30;;;;;;;;;;7397643;19;20003;-77
2023/10/20 01:29:34;;;;;;;30.70;17.63;;;;;;;;;;7374987;19;20047;-76
2023/10/20 01:31:59;;;;;;;34.65;19.05;;;;;;;;;;7372426;19;20070;-75
2023/10/20 01:34:24;;;;;;;28.80;17.65;;;;;;;;;;7370518;19;20006;-75
2023/10/20 01:36:50;;;;;;;29.05;17.58;;;;;;;;;;7372286;19;20390;-76
2023/10/20 01:39:16;;;;;;;28.23;18.02;;;;;;;;;;7396133;19;20025;-76
2023/10/20 01:41:41;;;;;;;29.70;18.38;;;;;;;;;;7366813;19;20774;-76
2023/10/20 01:44:08;;;;;;;36.78;18.85;;;;;;;;;;7364669;19;20011;-76
2023/10/20 01:46:34;;;;;;;30.60;19.25;;;;;;;;;;7364970;19;20032;-76
2023/10/20 01:48:59;;;;;;;32.97;18.77;;;;;;;;;;7362867;19;20006;-76
2023/10/20 01:51:25;;;;;;;30.08;17.42;;;;;;;;;;7384982;19;19999;-76
2023/10/20 01:53:50;;;;;;;24.20;16.98;;;;;;;;;;7359401;19;20505;-76
2023/10/20 01:56:15;;;;;;;29.23;18.10;;;;;;;;;;7364782;19;20051;-76
2023/10/20 01:58:41;;;;;;;24.70;17.70;;;;;;;;;;7371530;19;19998;-76
2023/10/20 02:01:08;;;;;;;30.67;17.75;;;;;;;;;;7371001;19;20006;-76
2023/10/20 02:03:33;;;;;;;29.42;18.33;;;;;;;;;;7392170;19;20443;-76
2023/10/20 02:05:59;;;;;;;26.13;16.23;;;;;;;;;;7372728;19;20007;-76
2023/10/20 02:08:24;;;;;;;29.25;18.40;;;;;;;;;;7372105;19;20007;-76
2023/10/20 02:10:50;;;;;;;30.58;18.45;;;;;;;;;;7373608;19;20038;-76
2023/10/20 02:13:15;;;;;;;28.60;18.25;;;;;;;;;;7371187;19;20387;-76
2023/10/20 02:15:47;;;;;;;24.92;16.65;;;;;;;;;;7373948;19;19994;-76
2023/10/20 02:18:12;;;;;;;28.00;17.17;;;;;;;;;;7394531;19;20003;-77
2023/10/20 02:20:38;;;;;;;29.20;16.73;;;;;;;;;;7371955;19;20192;-76
2023/10/20 02:23:03;;;;;;;26.60;17.60;;;;;;;;;;7369566;19;20342;-77
2023/10/20 02:25:29;;;;;;;24.85;16.92;;;;;;;;;;7372211;19;20017;-77
2023/10/20 02:27:55;;;;;;;27.67;17.27;;;;;;;;;;7373896;19;20002;-77
2023/10/20 02:30:20;;;;;;;28.95;17.67;;;;;;;;;;7399750;19;20026;-77
2023/10/20 02:32:46;;;;;;;23.77;16.80;;;;;;;;;;7375651;19;20014;-77
2023/10/20 02:35:12;;;;;;;25.63;16.27;;;;;;;;;;7375084;19;20117;-77
2023/10/20 02:37:37;;;;;;;24.90;15.77;;;;;;;;;;7377788;19;20015;-77
2023/10/20 02:40:05;;;;;;;24.02;15.48;;;;;;;;;;7376090;19;20036;-78
2023/10/20 02:42:34;;;;;;;23.25;15.15;;;;;;;;;;7394113;19;20468;-77
2023/10/20 02:45:00;;;;;;;24.10;15.30;;;;;;;;;;7370820;19;20016;-76
2023/10/20 02:47:26;;;;;;;19.27;13.85;;;;;;;;;;7371832;19;20468;-76
2023/10/20 02:49:58;;;;;;;19.10;14.07;;;;;;;;;;7371767;19;20009;-76
2023/10/20 02:52:24;;;;;;;22.95;14.75;;;;;;;;;;7369903;19;20019;-76
2023/10/20 02:54:56;;;;;;;24.48;14.48;;;;;;;;;;7370506;19;20006;-76
2023/10/20 02:57:22;;;;;;;25.10;15.20;;;;;;;;;;7393515;19;20019;-76
2023/10/20 02:59:48;;;;;;;22.70;14.43;;;;;;;;;;7371355;19;20455;-76
2023/10/20 03:02:15;;;;;;;23.80;14.95;;;;;;;;;;7371863;19;20455;-75
2023/10/20 03:04:41;;;;;;;23.60;14.77;;;;;;;;;;7384233;19;20002;-76
2023/10/20 03:07:07;;;;;;;21.25;14.43;;;;;;;;;;7385979;19;20452;-76
2023/10/20 03:09:32;;;;;;;24.05;15.30;;;;;;;;;;7409586;19;20011;-76
2023/10/20 03:11:58;;;;;;;26.88;16.25;;;;;;;;;;7384856;19;20363;-76
2023/10/20 03:14:23;;;;;;;29.35;17.00;;;;;;;;;;7379757;19;20009;-76
2023/10/20 03:16:48;;;;;;;26.48;16.30;;;;;;;;;;7374033;19;20076;-75
2023/10/20 03:19:14;;;;;;;26.13;16.00;;;;;;;;;;7370687;19;21070;-75
2023/10/20 03:21:40;;;;;;;25.15;17.58;;;;;;;;;;7369499;19;20642;-76
2023/10/20 03:24:05;;;;;;;25.80;17.23;;;;;;;;;;7391131;19;19999;-75
2023/10/20 03:26:31;;;;;;;33.55;17.42;;;;;;;;;;7368676;19;20693;-75
2023/10/20 03:28:57;;;;;;;30.52;18.35;;;;;;;;;;7370008;19;20014;-75
2023/10/20 03:31:22;;;;;;;30.35;18.23;;;;;;;;;;7370694;19;20085;-76
2023/10/20 03:33:48;;;;;;;30.17;18.23;;;;;;;;;;7366904;19;20496;-76
2023/10/20 03:36:13;;;;;;;27.90;17.38;;;;;;;;;;7392097;19;20006;-76
2023/10/20 03:38:39;;;;;;;29.70;18.38;;;;;;;;;;7369392;19;20023;-76
2023/10/20 03:41:09;;;;;;;26.48;18.27;;;;;;;;;;7369317;19;20010;-76
2023/10/20 03:43:35;;;;;;;27.55;17.30;;;;;;;;;;7366471;19;20010;-76
2023/10/20 03:46:02;;;;;;;28.88;17.63;;;;;;;;;;7370253;19;20507;-76
2023/10/20 03:48:29;;;;;;;32.35;18.92;;;;;;;;;;7390069;19;20009;-76
2023/10/20 03:50:55;;;;;;;79.85;54.20;;;;;;;;;;7367006;19;20006;-76
2023/10/20 03:53:26;;;;;;;31.85;20.77;;;;;;;;;;7365657;19;19998;-76
2023/10/20 03:56:04;;;;;;;25.17;17.75;;;;;;;;;;7367346;19;20006;-76
2023/10/20 03:58:30;;;;;;;30.95;18.75;;;;;;;;;;7364792;19;20027;-76
2023/10/20 04:00:57;;;;;;;30.95;19.55;;;;;;;;;;7369362;19;20602;-77
2023/10/20 04:03:26;;;;;;;28.70;19.30;;;;;;;;;;7387349;19;20020;-76
2023/10/20 04:05:52;;;;;;;31.50;19.05;;;;;;;;;;7368126;19;20123;-76
2023/10/20 04:08:18;;;;;;;27.30;17.77;;;;;;;;;;7367370;19;20435;-76
2023/10/20 04:10:44;;;;;;;30.50;18.55;;;;;;;;;;7367312;19;20002;-76
2023/10/20 04:13:10;;;;;;;29.23;19.25;;;;;;;;;;7365344;19;20347;-76
2023/10/20 04:15:36;;;;;;;29.75;18.83;;;;;;;;;;7386787;19;19991;-77
2023/10/20 04:18:03;;;;;;;29.80;18.63;;;;;;;;;;7380986;19;19999;-77
2023/10/20 04:20:29;;;;;;;27.00;18.75;;;;;;;;;;7363101;19;20042;-76
2023/10/20 04:22:54;;;;;;;27.17;17.88;;;;;;;;;;7366954;19;19999;-76
2023/10/20 04:25:22;;;;;;;26.42;18.00;;;;;;;;;;7367877;19;20003;-76
2023/10/20 04:27:57;;;;;;;26.15;17.88;;;;;;;;;;7369935;19;20013;-76
2023/10/20 05:05:39;;;;;;;29.73;17.98;;;;;;;;;;7364931;19;20027;-77
2023/10/20 05:08:08;;;;;;;25.13;16.20;;;;;;;;;;7367443;19;20074;-76
2023/10/20 05:10:34;;;;;;;23.23;17.05;;;;;;;;;;7343291;19;20066;-76
2023/10/20 05:12:59;;;;;;;23.92;17.02;;;;;;;;;;7361173;19;20019;-76
2023/10/20 05:15:25;;;;;;;25.48;17.45;;;;;;;;;;7387307;19;20600;-77
2023/10/20 05:17:50;;;;;;;27.13;17.83;;;;;;;;;;7361380;19;20002;-76
2023/10/20 05:20:20;;;;;;;26.25;17.98;;;;;;;;;;7356431;19;20014;-77
2023/10/20 05:22:46;;;;;;;27.20;18.38;;;;;;;;;;7368125;19;20017;-78
2023/10/20 05:25:11;;;;;;;29.65;18.35;;;;;;;;;;7369128;19;20073;-77
2023/10/20 05:27:37;;;;;;;26.45;18.35;;;;;;;;;;7378877;19;20006;-77
2023/10/20 05:30:03;;;;;;;26.85;18.77;;;;;;;;;;7387119;19;20003;-78
2023/10/20 05:32:31;;;;;;;28.73;18.85;;;;;;;;;;7368705;19;20010;-78
2023/10/20 05:34:58;;;;;;;26.73;18.45;;;;;;;;;;7373995;19;20487;-78
2023/10/20 05:37:24;;;;;;;27.70;18.98;;;;;;;;;;7377418;19;20023;-78
2023/10/20 05:39:49;;;;;;;29.15;19.02;;;;;;;;;;7388055;19;19999;-79
2023/10/20 05:42:16;;;;;;;28.52;18.38;;;;;;;;;;7413699;19;20017;-79
2023/10/20 05:45:09;;;;;;;26.77;18.17;;;;;;;;;;7383630;19;20402;-78
2023/10/20 05:47:34;;;;;;;29.25;18.23;;;;;;;;;;7379003;19;20738;-79
2023/10/20 05:50:01;;;;;;;29.83;19.45;;;;;;;;;;7369873;19;20017;-77
2023/10/20 05:52:26;;;;;;;29.52;17.88;;;;;;;;;;7365996;19;20019;-77
2023/10/20 05:54:53;;;;;;;28.05;18.27;;;;;;;;;;7366752;19;20002;-77
2023/10/20 05:57:19;;;;;;;26.50;18.27;;;;;;;;;;7391603;19;20037;-76
2023/10/20 05:59:46;;;;;;;26.67;17.85;;;;;;;;;;7364286;19;20018;-76
2023/10/20 06:02:11;;;;;;;31.30;20.10;;;;;;;;;;7351018;19;20031;-76
2023/10/20 06:04:37;;;;;;;26.60;19.88;;;;;;;;;;7361876;19;20468;-76
2023/10/20 06:07:03;;;;;;;25.65;18.27;;;;;;;;;;7368039;19;20035;-78
2023/10/20 06:09:29;;;;;;;27.73;19.10;;;;;;;;;;7393056;19;20007;-78
2023/10/20 06:11:54;;;;;;;27.85;19.08;;;;;;;;;;7366168;19;20017;-76
2023/10/20 06:14:23;;;;;;;28.15;19.90;;;;;;;;;;7363200;19;20015;-76
2023/10/20 06:16:49;;;;;;;26.60;19.25;;;;;;;;;;7364906;19;20013;-76
2023/10/20 06:19:15;;;;;;;31.60;21.15;;;;;;;;;;7365389;19;20091;-76
2023/10/20 06:21:42;;;;;;;31.63;20.45;;;;;;;;;;7363388;19;20010;-76
2023/10/20 06:24:11;;;;;;;30.80;21.30;;;;;;;;;;7385329;19;20485;-76
2023/10/20 06:26:37;;;;;;;29.92;20.95;;;;;;;;;;7355462;19;20472;-76
2023/10/20 06:29:03;;;;;;;32.70;21.35;;;;;;;;;;7386447;19;20030;-78
2023/10/20 06:36:34;;;;;;;31.40;20.48;;;;;;;;;;7406753;19;20022;-77
2023/10/20 06:38:59;;;;;;;33.67;23.08;;;;;;;;;;7384077;19;20023;-76
2023/10/20 06:41:25;;;;;;;34.30;23.65;;;;;;;;;;7363379;19;20135;-77
2023/10/20 06:43:50;;;;;;;34.38;23.60;;;;;;;;;;7364681;19;20038;-76
2023/10/20 06:46:16;;;;;;;37.35;24.73;;;;;;;;;;7371179;19;20044;-77
2023/10/20 06:48:41;;;;;;;37.15;24.10;;;;;;;;;;7367755;19;20069;-76
2023/10/20 06:51:06;;;;;;;41.38;25.02;;;;;;;;;;7393625;19;20006;-76
2023/10/20 06:53:32;;;;;;;39.10;25.60;;;;;;;;;;7367592;19;20058;-76
2023/10/20 06:55:58;;;;;;;39.38;25.48;;;;;;;;;;7370065;19;20002;-76
2023/10/20 06:58:24;;;;;;;39.47;25.15;;;;;;;;;;7373338;19;20002;-77
2023/10/20 07:00:49;;;;;;;38.95;25.70;;;;;;;;;;7372519;19;20042;-78
2023/10/20 07:03:14;;;;;;;40.33;26.38;;;;;;;;;;7397227;19;19994;-78
2023/10/20 07:05:41;;;;;;;37.17;25.48;;;;;;;;;;7377964;19;20388;-77
2023/10/20 07:08:07;;;;;;;35.42;24.67;;;;;;;;;;7372027;19;20371;-77
2023/10/20 07:10:37;;;;;;;34.72;24.77;;;;;;;;;;7369649;19;20020;-77
2023/10/20 07:13:07;;;;;;;35.55;25.10;;;;;;;;;;7369764;19;20056;-76
2023/10/20 07:15:36;;;;;;;36.22;25.35;;;;;;;;;;7401442;19;20014;-78
2023/10/20 07:18:02;;;;;;;34.63;24.88;;;;;;;;;;7376633;19;20014;-76
2023/10/20 07:20:30;;;;;;;37.70;25.15;;;;;;;;;;7369227;19;20534;-76
2023/10/20 07:22:55;;;;;;;35.33;24.02;;;;;;;;;;7368857;19;20013;-76
2023/10/20 07:25:21;;;;;;;32.05;23.80;;;;;;;;;;7369399;19;20350;-76
2023/10/20 07:27:46;;;;;;;36.13;25.30;;;;;;;;;;7371425;19;20356;-77
2023/10/20 07:30:12;;;;;;;36.95;24.38;;;;;;;;;;7391616;19;20472;-76
2023/10/20 07:32:38;;;;;;;31.70;23.83;;;;;;;;;;7369232;19;20017;-76
2023/10/20 07:35:04;;;;;;;37.65;24.92;;;;;;;;;;7369296;19;20010;-76
2023/10/20 07:37:30;;;;;;;34.90;24.02;;;;;;;;;;7372557;19;20023;-77
2023/10/20 07:39:55;;;;;;;30.80;21.85;;;;;;;;;;7370129;19;20019;-76
2023/10/20 07:42:20;;;;;;;31.20;22.55;;;;;;;;;;7391222;19;20003;-77
2023/10/20 07:44:46;;;;;;;33.17;22.65;;;;;;;;;;7368137;19;20007;-76
2023/10/20 07:47:12;;;;;;;33.13;23.73;;;;;;;;;;7370431;19;20006;-76
2023/10/20 07:49:37;;;;;;;32.28;21.92;;;;;;;;;;7363955;19;20026;-77
2023/10/20 07:52:03;;;;;;;33.15;23.60;;;;;;;;;;7377347;19;20062;-77
2023/10/20 07:54:29;;;;;;;34.05;23.08;;;;;;;;;;7391283;19;20005;-76
2023/10/20 07:56:56;;;;;;;36.67;23.20;;;;;;;;;;7367470;19;20061;-75
2023/10/20 07:59:21;;;;;;;35.10;24.35;;;;;;;;;;7368982;19;20636;-74
2023/10/20 08:01:46;;;;;;;32.50;23.38;;;;;;;;;;7372307;19;20007;-74
2023/10/20 08:04:12;;;;;;;32.95;23.63;;;;;;;;;;7367951;19;20019;-74
2023/10/20 08:06:37;;;;;;;36.92;23.88;;;;;;;;;;7372179;19;20365;-75
2023/10/20 08:09:02;;;;;;;31.55;22.27;;;;;;;;;;7389568;19;20006;-75
2023/10/20 08:11:28;;;;;;;34.80;22.73;;;;;;;;;;7367606;19;20010;-74
2023/10/20 08:13:55;;;;;;;32.20;22.00;;;;;;;;;;7366760;19;20473;-75
2023/10/20 08:16:21;;;;;;;33.42;22.83;;;;;;;;;;7368119;19;20554;-74
2023/10/20 08:18:46;;;;;;;27.85;22.77;;;;;;;;;;7366746;19;20010;-76
2023/10/20 08:21:12;;;;;;;39.58;23.17;;;;;;;;;;7388747;19;19998;-74
2023/10/20 08:23:38;;;;;;;29.58;21.65;;;;;;;;;;7365859;19;20452;-74
2023/10/20 08:26:04;;;;;;;26.90;20.55;;;;;;;;;;7368082;19;20038;-74
2023/10/20 08:28:30;;;;;;;27.38;20.73;;;;;;;;;;7367343;19;20006;-74
2023/10/20 08:31:04;;;;;;;26.60;19.45;;;;;;;;;;7369076;19;20430;-74
2023/10/20 08:33:29;;;;;;;26.95;19.58;;;;;;;;;;7387435;19;20129;-74
2023/10/20 08:35:55;;;;;;;28.23;19.27;;;;;;;;;;7367891;19;20488;-74
2023/10/20 08:38:20;;;;;;;26.77;18.95;;;;;;;;;;7367673;19;20552;-74
2023/10/20 08:40:45;;;;;;;26.67;18.98;;;;;;;;;;7368051;19;20014;-73
2023/10/20 08:43:11;;;;;;;24.63;18.40;;;;;;;;;;7364365;19;20006;-74
2023/10/20 08:45:36;;;;;;;27.48;17.67;;;;;;;;;;7382012;19;20002;-74
2023/10/20 08:48:02;;;;;;;23.05;17.38;;;;;;;;;;7378646;19;20341;-74
2023/10/20 08:50:31;;;;;;;21.88;16.02;;;;;;;;;;7367459;19;20042;-76
2023/10/20 08:52:58;;;;;;;24.30;17.15;;;;;;;;;;7361308;19;20444;-77
2023/10/20 08:55:24;;;;;;;23.15;16.98;;;;;;;;;;7365821;19;20078;-77
2023/10/20 08:57:49;;;;;;;21.27;17.33;;;;;;;;;;7366497;19;20423;-77
2023/10/20 09:00:21;;;;;;;22.75;17.48;;;;;;;;;;7386180;19;20014;-77
2023/10/20 09:02:47;;;;;;;24.92;18.17;;;;;;;;;;7364250;19;20699;-77
2023/10/20 09:05:20;;;;;;;25.13;18.77;;;;;;;;;;7365275;19;20727;-76
2023/10/20 09:07:54;;;;;;;24.67;16.92;;;;;;;;;;7369285;19;20013;-77
2023/10/20 09:10:19;;;;;;;22.80;17.42;;;;;;;;;;7373562;19;20467;-77
2023/10/20 09:12:45;;;;;;;23.25;17.00;;;;;;;;;;7371870;19;20006;-76
2023/10/20 09:15:11;;;;;;;27.25;17.02;;;;;;;;;;7388214;19;20465;-76
2023/10/20 09:17:36;;;;;;;21.80;16.80;;;;;;;;;;7364821;19;20014;-76
2023/10/20 09:20:07;;;;;;;23.90;19.00;;;;;;;;;;7366950;19;20003;-76
2023/10/20 09:22:32;;;;;;;25.63;18.23;;;;;;;;;;7365012;19;19999;-77
2023/10/20 09:24:57;;;;;;;23.88;17.80;;;;;;;;;;7366905;19;20021;-77
2023/10/20 09:27:24;;;;;;;25.55;17.08;;;;;;;;;;7390633;19;20006;-77
2023/10/20 09:29:50;;;;;;;24.65;18.98;;;;;;;;;;7368135;19;20002;-77
2023/10/20 09:32:16;;;;;;;25.73;18.67;;;;;;;;;;7365894;19;20014;-77
2023/10/20 09:34:41;;;;;;;25.30;20.35;;;;;;;;;;7369654;19;20031;-78
2023/10/20 09:37:09;;;;;;;28.02;19.83;;;;;;;;;;7369342;19;19999;-76
2023/10/20 09:39:38;;;;;;;27.38;19.13;;;;;;;;;;7384086;19;20031;-77
2023/10/20 09:42:05;;;;;;;26.88;17.80;;;;;;;;;;7365966;19;20011;-77
2023/10/20 09:44:47;;;;;;;26.60;18.67;;;;;;;;;;7363325;19;20002;-78
2023/10/20 09:47:23;;;;;;;23.17;17.95;;;;;;;;;;7367248;19;20018;-77
2023/10/20 09:49:51;;;;;;;27.33;18.48;;;;;;;;;;7367730;19;20003;-77
2023/10/20 09:52:16;;;;;;;20.92;16.83;;;;;;;;;;7375454;19;20015;-78
2023/10/20 09:54:43;;;;;;;19.92;16.33;;;;;;;;;;7397381;19;20005;-79
2023/10/20 09:57:09;;;;;;;20.45;15.07;;;;;;;;;;7422700;19;19995;-77
2023/10/20 09:59:38;;;;;;;18.73;14.75;;;;;;;;;;7398672;19;20063;-78
2023/10/20 10:02:03;;;;;;;27.15;16.10;;;;;;;;;;7400667;19;20031;-78
2023/10/20 10:04:33;;;;;;;17.88;14.50;;;;;;;;;;7385523;19;20014;-77
2023/10/20 10:07:05;;;;;;;20.05;14.93;;;;;;;;;;7371733;19;20010;-77
2023/10/20 10:09:38;;;;;;;19.30;13.70;;;;;;;;;;7396668;19;20104;-77
2023/10/20 10:12:14;;;;;;;17.40;12.68;;;;;;;;;;7377373;19;20411;-79
2023/10/20 10:14:39;;;;;;;17.77;13.75;;;;;;;;;;7395516;19;20843;-79
2023/10/20 10:17:09;;;;;;;16.88;13.45;;;;;;;;;;7381264;19;20014;-77
2023/10/20 10:19:35;;;;;;;18.30;12.77;;;;;;;;;;7387944;19;20017;-77
2023/10/20 10:22:02;;;;;;;16.08;12.35;;;;;;;;;;7387527;19;20516;-77
2023/10/20 10:24:31;;;;;;;15.55;11.23;;;;;;;;;;7402735;19;19998;-76
2023/10/20 10:27:03;;;;;;;15.43;12.10;;;;;;;;;;7379713;19;20006;-77
2023/10/20 10:30:00;;;;;;;16.20;11.48;;;;;;;;;;7374934;19;20499;-76
2023/10/20 10:32:30;;;;;;;18.40;13.20;;;;;;;;;;7371826;19;20488;-66
2023/10/20 10:34:56;;;;;;;17.75;13.63;;;;;;;;;;7375639;19;20006;-76
2023/10/20 10:37:33;;;;;;;19.05;13.20;;;;;;;;;;7376979;19;20031;-76
2023/10/20 10:40:10;;;;;;;16.58;13.02;;;;;;;;;;7375047;19;20014;-76
2023/10/20 10:42:39;;;;;;;19.77;14.90;;;;;;;;;;7388552;19;20006;-76
2023/10/20 10:45:20;;;;;;;17.08;13.65;;;;;;;;;;7393401;19;20012;-76
2023/10/20 10:47:46;;;;;;;18.25;13.90;;;;;;;;;;7373073;19;20014;-76
2023/10/20 10:50:12;;;;;;;18.33;14.05;;;;;;;;;;7372629;19;20287;-77
2023/10/20 10:52:37;;;;;;;18.42;14.38;;;;;;;;;;7370960;19;20358;-76
2023/10/20 10:55:04;;;;;;;17.15;13.95;;;;;;;;;;7371024;19;20005;-76
2023/10/20 10:57:30;;;;;;;17.25;13.25;;;;;;;;;;7383229;19;20725;-76
2023/10/20 10:59:56;;;;;;;19.30;13.38;;;;;;;;;;7368037;19;20010;-76
2023/10/20 11:02:21;;;;;;;17.02;13.93;;;;;;;;;;7368765;19;20011;-78
2023/10/20 11:04:47;;;;;;;16.95;13.10;;;;;;;;;;7367775;19;20085;-76
2023/10/20 11:07:15;;;;;;;14.73;12.95;;;;;;;;;;7366704;19;20500;-75
2023/10/20 11:09:41;;;;;;;16.50;12.00;;;;;;;;;;7368211;19;20031;-77
2023/10/20 11:12:12;;;;;;;15.23;12.60;;;;;;;;;;7388333;19;20010;-76
2023/10/20 11:14:38;;;;;;;15.82;13.02;;;;;;;;;;7371194;19;20010;-77
2023/10/20 11:17:04;;;;;;;17.13;13.02;;;;;;;;;;7368583;19;20014;-76
2023/10/20 11:19:30;;;;;;;14.68;12.02;;;;;;;;;;7368460;19;20070;-75
2023/10/20 11:21:55;;;;;;;15.43;12.18;;;;;;;;;;7367829;19;20037;-75
2023/10/20 11:24:37;;;;;;;19.05;11.10;;;;;;;;;;7390261;19;20686;-76
2023/10/20 11:27:08;;;;;;;17.00;13.13;;;;;;;;;;7368024;19;20009;-75
2023/10/20 11:29:35;;;;;;;;;;;;;;;;;;7368858;19;20006;-75
2023/10/20 11:32:05;;;;;;;19.73;12.65;;;;;;;;;;7368835;19;19923;-75
2023/10/20 11:34:33;;;;;;;17.85;12.73;;;;;;;;;;7371234;19;20013;-77
2023/10/20 11:37:00;;;;;;;15.07;11.93;;;;;;;;;;7375881;19;20007;-77
2023/10/20 11:39:27;;;;;;;13.95;10.90;;;;;;;;;;7392975;19;20235;-76
2023/10/20 11:41:54;;;;;;;15.98;11.57;;;;;;;;;;7377150;19;20013;-76
2023/10/20 11:44:26;;;;;;;13.23;10.73;;;;;;;;;;7393244;19;20010;-75
2023/10/20 11:46:55;;;;;;;14.20;11.15;;;;;;;;;;7373567;19;20021;-75
2023/10/20 11:49:21;;;;;;;14.60;11.52;;;;;;;;;;7368376;19;20010;-75
2023/10/20 11:51:47;;;;;;;15.82;12.05;;;;;;;;;;7369309;19;20006;-75
2023/10/20 11:54:12;;;;;;;16.10;12.48;;;;;;;;;;7389356;19;20035;-75
2023/10/20 11:56:38;;;;;;;19.63;12.65;;;;;;;;;;7367154;19;20121;-74
2023/10/20 11:59:04;;;;;;;16.60;11.10;;;;;;;;;;7367831;19;20014;-75
2023/10/20 12:01:31;;;;;;;16.00;11.55;;;;;;;;;;7367810;19;20006;-75
2023/10/20 12:04:00;;;;;;;13.50;10.60;;;;;;;;;;7365835;19;20014;-75
2023/10/20 12:06:26;;;;;;;16.02;11.02;;;;;;;;;;7391291;19;20006;-75
2023/10/20 12:08:52;;;;;;;14.80;10.10;;;;;;;;;;7366793;19;20467;-74
2023/10/20 12:11:18;;;;;;;13.65;10.73;;;;;;;;;;7367537;19;20544;-75
2023/10/20 12:13:47;;;;;;;14.13;10.57;;;;;;;;;;7365730;19;20006;-74
2023/10/20 12:16:14;;;;;;;15.75;11.95;;;;;;;;;;7369060;19;20019;-74
2023/10/20 12:18:41;;;;;;;15.98;10.85;;;;;;;;;;7367340;19;19999;-75
2023/10/20 12:21:07;;;;;;;14.38;11.00;;;;;;;;;;7388323;19;20845;-75
2023/10/20 12:23:33;;;;;;;14.07;10.30;;;;;;;;;;7363796;19;20078;-75
2023/10/20 12:25:58;;;;;;;14.73;10.45;;;;;;;;;;7365524;19;20456;-75
2023/10/20 12:28:26;;;;;;;13.48;10.10;;;;;;;;;;7366726;19;20002;-75
2023/10/20 12:30:52;;;;;;;14.32;9.38;;;;;;;;;;7366082;19;20024;-75
2023/10/20 12:33:17;;;;;;;12.88;10.20;;;;;;;;;;7387815;19;20002;-75
2023/10/20 12:35:43;;;;;;;13.38;9.40;;;;;;;;;;7368697;19;20622;-76
2023/10/20 12:38:09;;;;;;;12.15;9.30;;;;;;;;;;7368305;19;20616;-75
2023/10/20 12:40:34;;;;;;;11.63;9.20;;;;;;;;;;7366051;19;20006;-74
2023/10/20 12:43:00;;;;;;;15.07;9.25;;;;;;;;;;7364857;19;20027;-74
2023/10/20 12:45:25;;;;;;;13.15;9.00;;;;;;;;;;7387199;19;20011;-74
2023/10/20 12:47:55;;;;;;;13.88;8.82;;;;;;;;;;7365574;19;20007;-76
2023/10/20 12:50:20;;;;;;;11.93;8.43;;;;;;;;;;7362358;19;20021;-74
2023/10/20 12:52:46;;;;;;;13.93;8.65;;;;;;;;;;7364652;19;20025;-74
2023/10/20 12:55:11;;;;;;;14.27;9.23;;;;;;;;;;7359909;19;20010;-69
2023/10/20 12:57:36;;;;;;;12.10;8.65;;;;;;;;;;7376517;19;20014;-69
2023/10/20 13:00:03;;;;;;;16.88;9.07;;;;;;;;;;7376542;19;20007;-69
2023/10/20 13:02:28;;;;;;;14.85;8.27;;;;;;;;;;7364598;19;20009;-74
2023/10/20 13:04:53;;;;;;;12.52;7.35;;;;;;;;;;7362475;19;20079;-75
2023/10/20 13:07:20;;;;;;;10.95;7.68;;;;;;;;;;7362946;19;20010;-74
2023/10/20 13:09:45;;;;;;;10.73;7.20;;;;;;;;;;7363590;19;20472;-74
2023/10/20 13:12:10;;;;;;;9.23;6.88;;;;;;;;;;7385399;19;20030;-74
2023/10/20 13:14:36;;;;;;;11.73;7.07;;;;;;;;;;7364032;19;20460;-75
2023/10/20 13:17:02;;;;;;;10.95;6.57;;;;;;;;;;7366791;19;20039;-74
2023/10/20 13:19:29;;;;;;;9.20;6.50;;;;;;;;;;7377300;19;20011;-74
2023/10/20 13:21:55;;;;;;;8.93;5.60;;;;;;;;;;7378789;19;20003;-74
2023/10/20 13:24:20;;;;;;;9.38;5.53;;;;;;;;;;7403427;19;20035;-75
2023/10/20 13:26:45;;;;;;;7.20;5.30;;;;;;;;;;7377856;19;20006;-75
2023/10/20 13:29:11;;;;;;;8.52;4.57;;;;;;;;;;7376833;19;20017;-74
2023/10/20 13:31:36;;;;;;;6.70;3.78;;;;;;;;;;7366160;19;20475;-74
2023/10/20 13:34:02;;;;;;;5.20;2.88;;;;;;;;;;7362703;19;20476;-74
2023/10/20 13:36:27;;;;;;;5.38;3.17;;;;;;;;;;7385150;19;20388;-75
2023/10/20 13:38:53;;;;;;;5.22;3.00;;;;;;;;;;7366257;19;20010;-74
2023/10/20 13:41:18;;;;;;;7.85;2.90;;;;;;;;;;7353237;19;20033;-75
2023/10/20 13:43:44;;;;;;;4.03;2.28;;;;;;;;;;7349379;19;20015;-75
2023/10/20 13:46:09;;;;;;;2.67;1.90;;;;;;;;;;7362618;19;20122;-75
2023/10/20 13:48:35;;;;;;;3.92;1.60;;;;;;;;;;7388175;19;20002;-75
2023/10/20 13:51:00;;;;;;;1.73;1.30;;;;;;;;;;7366272;19;20010;-74
2023/10/20 13:53:25;;;;;;;1.92;1.20;;;;;;;;;;7369862;19;20006;-74
2023/10/20 13:55:51;;;;;;;1.17;1.00;;;;;;;;;;7373116;19;20002;-74
2023/10/20 13:58:19;;;;;;;1.48;1.20;;;;;;;;;;7373275;19;20475;-74
2023/10/20 14:00:45;;;;;;;1.33;0.90;;;;;;;;;;7372223;19;20003;-74
2023/10/20 14:03:12;;;;;;;1.38;1.00;;;;;;;;;;7389858;19;20015;-74
2023/10/20 14:05:37;;;;;;;1.80;1.02;;;;;;;;;;7372182;19;20011;-74
2023/10/20 14:08:03;;;;;;;2.45;1.13;;;;;;;;;;7373349;19;20099;-74
2023/10/20 14:10:28;;;;;;;1.10;1.00;;;;;;;;;;7373374;19;20010;-74
2023/10/20 14:12:55;;;;;;;1.65;1.10;;;;;;;;;;7370353;19;20003;-75
2023/10/20 14:15:21;;;;;;;1.00;1.00;;;;;;;;;;7385272;19;20684;-76
2023/10/20 14:17:47;;;;;;;9.85;6.45;;;;;;;;;;7365292;19;20011;-76
2023/10/20 14:20:13;;;;;;;1.30;1.20;;;;;;;;;;7366290;19;20006;-76
2023/10/20 14:22:38;;;;;;;1.20;1.10;;;;;;;;;;7366392;19;20469;-76
2023/10/20 14:25:04;;;;;;;1.80;1.20;;;;;;;;;;7368508;19;20003;-76
2023/10/20 14:27:33;;;;;;;3.25;1.40;;;;;;;;;;7389047;19;20014;-77
2023/10/20 14:29:59;;;;;;;1.70;1.30;;;;;;;;;;7368895;19;20006;-76
2023/10/20 14:32:24;;;;;;;1.98;1.40;;;;;;;;;;7367996;19;20365;-76
2023/10/20 14:34:49;;;;;;;1.63;1.10;;;;;;;;;;7368591;19;20003;-77
2023/10/20 14:37:14;;;;;;;1.20;1.10;;;;;;;;;;7370484;19;20011;-77
2023/10/20 14:39:41;;;;;;;4.00;1.40;;;;;;;;;;7370085;19;20014;-75
2023/10/20 14:42:07;;;;;;;1.42;1.30;;;;;;;;;;7390031;19;20345;-75
2023/10/20 14:44:33;;;;;;;2.05;1.30;;;;;;;;;;7368005;19;20006;-75
2023/10/20 14:46:58;;;;;;;1.73;1.35;;;;;;;;;;7369738;19;20100;-76
2023/10/20 14:49:24;;;;;;;1.38;1.13;;;;;;;;;;7370225;19;20010;-75
2023/10/20 14:51:49;;;;;;;2.05;1.10;;;;;;;;;;7369955;19;20910;-76
2023/10/20 14:54:15;;;;;;;1.15;1.05;;;;;;;;;;7392450;19;20007;-75
2023/10/20 14:56:40;;;;;;;1.80;1.20;;;;;;;;;;7368438;19;20006;-75
2023/10/20 14:59:06;;;;;;;1.27;1.17;;;;;;;;;;7370559;19;20021;-75